sensor_id;sensor_type;location;lat;lon;timestamp;pressure;altitude;pressure_sealevel;temperature;humidity
68301;BME280;55146;47.468;18.806;2023-03-25T00:02:20;99135.53;;;14.31;70.06
68301;BME280;55146;47.468;18.806;2023-03-25T00:04:51;99138.47;;;14.34;69.88
68301;BME280;55146;47.468;18.806;2023-03-25T00:07:19;99137.53;;;14.39;69.77
68301;BME280;55146;47.468;18.806;2023-03-25T00:09:44;99137.22;;;14.40;69.44
68301;BME280;55146;47.468;18.806;2023-03-25T00:12:12;99136.22;;;14.45;69.18
68301;BME280;55146;47.468;18.806;2023-03-25T00:14:37;99145.03;;;14.47;68.95
68301;BME280;55146;47.468;18.806;2023-03-25T00:17:03;99149.44;;;14.48;68.95
68301;BME280;55146;47.468;18.806;2023-03-25T00:19:31;99162.44;;;14.47;69.13
68301;BME280;55146;47.468;18.806;2023-03-25T00:21:57;99159.34;;;14.40;69.71
68301;BME280;55146;47.468;18.806;2023-03-25T00:24:23;99160.75;;;14.29;70.53
68301;BME280;55146;47.468;18.806;2023-03-25T00:26:48;99157.84;;;14.26;70.69
68301;BME280;55146;47.468;18.806;2023-03-25T00:29:14;99149.69;;;14.29;70.75
68301;BME280;55146;47.468;18.806;2023-03-25T00:31:40;99154.91;;;14.31;70.61
68301;BME280;55146;47.468;18.806;2023-03-25T00:34:06;99150.66;;;14.33;70.62
68301;BME280;55146;47.468;18.806;2023-03-25T00:36:32;99155.06;;;14.34;70.77
68301;BME280;55146;47.468;18.806;2023-03-25T00:39:04;99156.69;;;14.35;70.80
68301;BME280;55146;47.468;18.806;2023-03-25T00:41:30;99156.19;;;14.25;70.89
68301;BME280;55146;47.468;18.806;2023-03-25T00:43:59;99150.50;;;14.30;70.83
68301;BME280;55146;47.468;18.806;2023-03-25T00:46:27;99150.50;;;14.30;71.01
68301;BME280;55146;47.468;18.806;2023-03-25T00:48:53;99154.41;;;14.29;71.05
68301;BME280;55146;47.468;18.806;2023-03-25T00:51:20;99145.09;;;14.16;71.79
68301;BME280;55146;47.468;18.806;2023-03-25T00:53:53;99144.47;;;14.19;71.07
68301;BME280;55146;47.468;18.806;2023-03-25T00:56:20;99148.37;;;14.18;70.97
68301;BME280;55146;47.468;18.806;2023-03-25T00:58:46;99150.47;;;14.12;70.76
68301;BME280;55146;47.468;18.806;2023-03-25T01:01:15;99150.94;;;14.14;70.35
68301;BME280;55146;47.468;18.806;2023-03-25T01:03:41;99152.94;;;14.23;70.08
68301;BME280;55146;47.468;18.806;2023-03-25T01:06:10;99147.09;;;14.24;69.96
68301;BME280;55146;47.468;18.806;2023-03-25T01:08:36;99154.47;;;14.37;69.55
68301;BME280;55146;47.468;18.806;2023-03-25T01:11:02;99159.47;;;14.35;70.16
68301;BME280;55146;47.468;18.806;2023-03-25T01:13:27;99156.38;;;14.37;71.39
68301;BME280;55146;47.468;18.806;2023-03-25T01:15:53;99156.06;;;14.38;71.74
68301;BME280;55146;47.468;18.806;2023-03-25T01:18:18;99148.59;;;14.39;72.08
68301;BME280;55146;47.468;18.806;2023-03-25T01:20:43;99157.25;;;14.37;72.63
68301;BME280;55146;47.468;18.806;2023-03-25T01:23:09;99153.66;;;14.45;72.38
68301;BME280;55146;47.468;18.806;2023-03-25T01:25:35;99151.47;;;14.34;72.96
68301;BME280;55146;47.468;18.806;2023-03-25T01:28:02;99152.47;;;14.29;73.48
68301;BME280;55146;47.468;18.806;2023-03-25T01:30:27;99159.59;;;14.22;74.04
68301;BME280;55146;47.468;18.806;2023-03-25T01:32:52;99161.69;;;14.16;74.29
68301;BME280;55146;47.468;18.806;2023-03-25T01:35:18;99165.13;;;14.13;74.58
68301;BME280;55146;47.468;18.806;2023-03-25T01:37:43;99162.50;;;14.16;73.89
68301;BME280;55146;47.468;18.806;2023-03-25T01:40:17;99177.31;;;14.12;73.61
68301;BME280;55146;47.468;18.806;2023-03-25T01:42:42;99178.84;;;13.96;73.98
68301;BME280;55146;47.468;18.806;2023-03-25T01:47:57;99177.31;;;14.12;73.58
68301;BME280;55146;47.468;18.806;2023-03-25T01:50:24;99191.06;;;13.95;75.25
68301;BME280;55146;47.468;18.806;2023-03-25T01:52:54;99187.44;;;13.86;76.51
68301;BME280;55146;47.468;18.806;2023-03-25T01:55:21;99189.34;;;13.76;77.83
68301;BME280;55146;47.468;18.806;2023-03-25T01:57:48;99194.31;;;13.66;79.31
68301;BME280;55146;47.468;18.806;2023-03-25T02:00:19;99192.09;;;13.46;80.40
68301;BME280;55146;47.468;18.806;2023-03-25T02:02:45;99194.22;;;13.49;80.66
68301;BME280;55146;47.468;18.806;2023-03-25T02:05:19;99196.44;;;13.38;81.39
68301;BME280;55146;47.468;18.806;2023-03-25T02:07:47;99189.16;;;13.42;82.30
68301;BME280;55146;47.468;18.806;2023-03-25T02:10:14;99180.78;;;13.11;84.71
68301;BME280;55146;47.468;18.806;2023-03-25T02:12:40;99168.34;;;13.14;84.33
68301;BME280;55146;47.468;18.806;2023-03-25T02:15:06;99167.56;;;13.22;84.69
68301;BME280;55146;47.468;18.806;2023-03-25T02:29:10;99160.75;;;12.83;87.80
68301;BME280;55146;47.468;18.806;2023-03-25T02:32:02;99158.19;;;12.87;87.05
68301;BME280;55146;47.468;18.806;2023-03-25T02:40:48;99153.22;;;12.75;85.73
68301;BME280;55146;47.468;18.806;2023-03-25T02:45:53;99146.50;;;12.68;85.87
68301;BME280;55146;47.468;18.806;2023-03-25T02:48:24;99146.06;;;12.74;85.20
68301;BME280;55146;47.468;18.806;2023-03-25T02:50:55;99146.75;;;12.57;86.18
68301;BME280;55146;47.468;18.806;2023-03-25T02:53:32;99144.09;;;12.52;86.62
68301;BME280;55146;47.468;18.806;2023-03-25T02:56:04;99152.03;;;12.54;87.53
68301;BME280;55146;47.468;18.806;2023-03-25T02:58:33;99156.16;;;12.43;89.46
68301;BME280;55146;47.468;18.806;2023-03-25T03:00:59;99158.91;;;12.43;89.70
68301;BME280;55146;47.468;18.806;2023-03-25T03:03:26;99160.56;;;12.44;90.08
68301;BME280;55146;47.468;18.806;2023-03-25T03:05:55;99160.72;;;12.61;89.17
68301;BME280;55146;47.468;18.806;2023-03-25T03:08:49;99161.34;;;12.58;89.57
68301;BME280;55146;47.468;18.806;2023-03-25T03:11:28;99172.28;;;12.49;90.30
68301;BME280;55146;47.468;18.806;2023-03-25T03:22:00;99188.66;;;12.46;91.68
68301;BME280;55146;47.468;18.806;2023-03-25T03:24:33;99182.03;;;12.33;92.69
68301;BME280;55146;47.468;18.806;2023-03-25T03:29:38;99181.69;;;12.35;93.01
68301;BME280;55146;47.468;18.806;2023-03-25T03:32:10;99181.22;;;12.33;93.03
68301;BME280;55146;47.468;18.806;2023-03-25T03:37:33;99177.81;;;12.36;93.42
68301;BME280;55146;47.468;18.806;2023-03-25T03:40:02;99172.41;;;12.44;92.76
68301;BME280;55146;47.468;18.806;2023-03-25T03:42:36;99185.78;;;12.37;93.36
68301;BME280;55146;47.468;18.806;2023-03-25T03:45:07;99192.25;;;12.33;94.20
68301;BME280;55146;47.468;18.806;2023-03-25T03:47:41;99189.97;;;12.35;93.62
68301;BME280;55146;47.468;18.806;2023-03-25T03:50:16;99200.72;;;12.36;94.17
68301;BME280;55146;47.468;18.806;2023-03-25T03:55:51;99208.97;;;12.36;94.38
68301;BME280;55146;47.468;18.806;2023-03-25T03:58:23;99206.94;;;12.42;94.06
68301;BME280;55146;47.468;18.806;2023-03-25T04:01:03;99212.97;;;12.44;94.26
68301;BME280;55146;47.468;18.806;2023-03-25T04:03:45;99217.06;;;12.46;93.75
68301;BME280;55146;47.468;18.806;2023-03-25T04:06:20;99219.00;;;12.46;93.98
68301;BME280;55146;47.468;18.806;2023-03-25T04:08:52;99222.28;;;12.21;94.76
68301;BME280;55146;47.468;18.806;2023-03-25T04:11:26;99223.69;;;12.18;95.62
68301;BME280;55146;47.468;18.806;2023-03-25T04:13:56;99215.31;;;12.23;95.27
68301;BME280;55146;47.468;18.806;2023-03-25T04:16:24;99221.53;;;12.29;95.44
68301;BME280;55146;47.468;18.806;2023-03-25T04:18:49;99226.34;;;12.23;96.04
68301;BME280;55146;47.468;18.806;2023-03-25T04:21:18;99222.78;;;12.09;96.96
68301;BME280;55146;47.468;18.806;2023-03-25T04:23:44;99218.50;;;12.03;97.12
68301;BME280;55146;47.468;18.806;2023-03-25T04:26:11;99222.06;;;11.90;97.87
68301;BME280;55146;47.468;18.806;2023-03-25T04:28:37;99225.72;;;11.85;99.27
68301;BME280;55146;47.468;18.806;2023-03-25T04:31:11;99222.97;;;11.99;98.21
68301;BME280;55146;47.468;18.806;2023-03-25T04:33:39;99226.44;;;12.04;97.05
68301;BME280;55146;47.468;18.806;2023-03-25T04:36:05;99229.31;;;12.13;95.71
68301;BME280;55146;47.468;18.806;2023-03-25T04:38:31;99238.00;;;12.06;96.22
68301;BME280;55146;47.468;18.806;2023-03-25T04:40:56;99239.63;;;12.07;95.25
68301;BME280;55146;47.468;18.806;2023-03-25T04:43:22;99240.16;;;12.09;95.04
68301;BME280;55146;47.468;18.806;2023-03-25T04:45:48;99245.09;;;11.80;95.90
68301;BME280;55146;47.468;18.806;2023-03-25T04:48:23;99241.66;;;11.88;94.91
68301;BME280;55146;47.468;18.806;2023-03-25T04:50:50;99246.53;;;11.91;95.71
68301;BME280;55146;47.468;18.806;2023-03-25T04:53:16;99244.59;;;11.92;95.61
68301;BME280;55146;47.468;18.806;2023-03-25T04:55:42;99258.88;;;11.80;94.96
68301;BME280;55146;47.468;18.806;2023-03-25T04:58:12;99255.28;;;11.80;95.48
68301;BME280;55146;47.468;18.806;2023-03-25T05:00:37;99256.44;;;11.79;96.36
68301;BME280;55146;47.468;18.806;2023-03-25T05:03:03;99261.47;;;11.90;95.24
68301;BME280;55146;47.468;18.806;2023-03-25T05:05:28;99259.31;;;11.87;94.66
68301;BME280;55146;47.468;18.806;2023-03-25T05:07:54;99266.34;;;11.93;93.63
68301;BME280;55146;47.468;18.806;2023-03-25T05:10:23;99268.72;;;12.00;91.91
68301;BME280;55146;47.468;18.806;2023-03-25T05:12:49;99271.63;;;11.76;93.39
68301;BME280;55146;47.468;18.806;2023-03-25T05:15:15;99277.44;;;11.74;93.92
68301;BME280;55146;47.468;18.806;2023-03-25T05:17:43;99279.06;;;11.75;93.90
68301;BME280;55146;47.468;18.806;2023-03-25T05:20:10;99277.59;;;11.64;93.88
68301;BME280;55146;47.468;18.806;2023-03-25T05:22:37;99281.06;;;11.70;93.78
68301;BME280;55146;47.468;18.806;2023-03-25T05:25:06;99279.22;;;11.65;93.89
68301;BME280;55146;47.468;18.806;2023-03-25T05:27:34;99279.44;;;11.69;93.98
68301;BME280;55146;47.468;18.806;2023-03-25T05:29:59;99281.91;;;11.70;93.54
68301;BME280;55146;47.468;18.806;2023-03-25T05:32:26;99278.97;;;11.81;93.58
68301;BME280;55146;47.468;18.806;2023-03-25T05:34:55;99277.56;;;11.83;92.74
68301;BME280;55146;47.468;18.806;2023-03-25T05:37:20;99283.75;;;11.75;91.69
68301;BME280;55146;47.468;18.806;2023-03-25T05:39:46;99286.34;;;11.85;91.51
68301;BME280;55146;47.468;18.806;2023-03-25T05:42:11;99292.75;;;11.81;91.72
68301;BME280;55146;47.468;18.806;2023-03-25T05:44:37;99287.47;;;11.84;90.77
68301;BME280;55146;47.468;18.806;2023-03-25T05:47:03;99292.47;;;11.82;91.34
68301;BME280;55146;47.468;18.806;2023-03-25T05:49:28;99290.00;;;11.81;90.95
68301;BME280;55146;47.468;18.806;2023-03-25T05:51:54;99287.25;;;11.81;91.21
68301;BME280;55146;47.468;18.806;2023-03-25T05:54:19;99294.22;;;11.92;90.93
68301;BME280;55146;47.468;18.806;2023-03-25T05:56:45;99294.41;;;11.82;90.42
68301;BME280;55146;47.468;18.806;2023-03-25T05:59:10;99299.47;;;11.74;91.13
68301;BME280;55146;47.468;18.806;2023-03-25T06:01:38;99295.44;;;11.67;91.41
68301;BME280;55146;47.468;18.806;2023-03-25T06:04:07;99298.13;;;11.72;91.36
68301;BME280;55146;47.468;18.806;2023-03-25T06:06:34;99301.31;;;11.79;91.34
68301;BME280;55146;47.468;18.806;2023-03-25T06:09:01;99302.91;;;11.66;92.48
68301;BME280;55146;47.468;18.806;2023-03-25T06:11:26;99298.41;;;11.70;93.08
68301;BME280;55146;47.468;18.806;2023-03-25T06:13:52;99295.59;;;11.75;91.58
68301;BME280;55146;47.468;18.806;2023-03-25T06:16:19;99308.47;;;11.80;92.03
68301;BME280;55146;47.468;18.806;2023-03-25T06:18:50;99299.72;;;11.78;92.02
68301;BME280;55146;47.468;18.806;2023-03-25T06:21:20;99300.72;;;11.82;92.71
68301;BME280;55146;47.468;18.806;2023-03-25T06:23:47;99305.75;;;11.94;92.13
68301;BME280;55146;47.468;18.806;2023-03-25T06:26:16;99305.66;;;11.99;91.91
68301;BME280;55146;47.468;18.806;2023-03-25T06:28:42;99308.03;;;12.05;90.93
68301;BME280;55146;47.468;18.806;2023-03-25T06:31:12;99317.03;;;12.11;90.96
68301;BME280;55146;47.468;18.806;2023-03-25T06:33:44;99316.91;;;12.16;90.15
68301;BME280;55146;47.468;18.806;2023-03-25T06:36:11;99321.53;;;12.21;90.41
68301;BME280;55146;47.468;18.806;2023-03-25T06:38:38;99320.50;;;12.16;91.30
68301;BME280;55146;47.468;18.806;2023-03-25T06:41:04;99325.38;;;12.06;91.34
68301;BME280;55146;47.468;18.806;2023-03-25T06:43:31;99321.09;;;12.00;91.56
68301;BME280;55146;47.468;18.806;2023-03-25T06:45:57;99327.22;;;11.97;91.25
68301;BME280;55146;47.468;18.806;2023-03-25T06:48:22;99318.19;;;11.91;91.90
68301;BME280;55146;47.468;18.806;2023-03-25T06:50:48;99314.22;;;11.97;92.45
68301;BME280;55146;47.468;18.806;2023-03-25T06:53:13;99324.69;;;12.14;92.42
68301;BME280;55146;47.468;18.806;2023-03-25T06:55:39;99321.31;;;12.17;91.64
68301;BME280;55146;47.468;18.806;2023-03-25T06:58:05;99327.38;;;12.33;90.54
68301;BME280;55146;47.468;18.806;2023-03-25T07:00:31;99323.91;;;12.41;91.28
68301;BME280;55146;47.468;18.806;2023-03-25T07:02:56;99337.41;;;12.56;90.92
68301;BME280;55146;47.468;18.806;2023-03-25T07:05:23;99337.81;;;12.63;88.50
68301;BME280;55146;47.468;18.806;2023-03-25T07:07:49;99342.12;;;12.69;87.50
68301;BME280;55146;47.468;18.806;2023-03-25T07:10:14;99346.19;;;12.58;88.31
68301;BME280;55146;47.468;18.806;2023-03-25T07:12:40;99359.47;;;12.56;88.69
68301;BME280;55146;47.468;18.806;2023-03-25T07:15:06;99351.63;;;12.63;86.71
68301;BME280;55146;47.468;18.806;2023-03-25T07:17:31;99350.06;;;12.84;85.86
68301;BME280;55146;47.468;18.806;2023-03-25T07:19:57;99349.16;;;12.75;84.78
68301;BME280;55146;47.468;18.806;2023-03-25T07:22:22;99351.50;;;12.82;83.85
68301;BME280;55146;47.468;18.806;2023-03-25T07:24:47;99362.97;;;12.75;81.97
68301;BME280;55146;47.468;18.806;2023-03-25T07:27:14;99361.72;;;12.81;83.29
68301;BME280;55146;47.468;18.806;2023-03-25T07:29:40;99357.22;;;12.72;81.67
68301;BME280;55146;47.468;18.806;2023-03-25T07:32:06;99358.47;;;12.52;83.00
68301;BME280;55146;47.468;18.806;2023-03-25T07:34:31;99352.44;;;12.77;81.54
68301;BME280;55146;47.468;18.806;2023-03-25T07:36:56;99346.81;;;12.96;82.44
68301;BME280;55146;47.468;18.806;2023-03-25T07:39:22;99343.44;;;13.13;81.32
68301;BME280;55146;47.468;18.806;2023-03-25T07:41:50;99349.78;;;13.13;80.74
68301;BME280;55146;47.468;18.806;2023-03-25T07:44:15;99342.38;;;13.22;81.37
68301;BME280;55146;47.468;18.806;2023-03-25T07:46:41;99339.31;;;13.24;79.61
68301;BME280;55146;47.468;18.806;2023-03-25T07:49:06;99334.22;;;13.17;79.22
68301;BME280;55146;47.468;18.806;2023-03-25T07:51:31;99327.69;;;13.13;77.94
68301;BME280;55146;47.468;18.806;2023-03-25T07:53:59;99333.59;;;12.93;78.66
68301;BME280;55146;47.468;18.806;2023-03-25T07:56:24;99336.66;;;13.05;78.18
68301;BME280;55146;47.468;18.806;2023-03-25T07:58:49;99342.69;;;13.07;79.69
68301;BME280;55146;47.468;18.806;2023-03-25T08:01:15;99334.03;;;13.14;78.14
68301;BME280;55146;47.468;18.806;2023-03-25T08:03:40;99337.06;;;12.98;79.60
68301;BME280;55146;47.468;18.806;2023-03-25T08:06:06;99337.28;;;13.02;76.33
68301;BME280;55146;47.468;18.806;2023-03-25T08:08:32;99334.03;;;13.14;76.87
68301;BME280;55146;47.468;18.806;2023-03-25T08:10:58;99325.81;;;13.22;77.72
68301;BME280;55146;47.468;18.806;2023-03-25T08:13:24;99325.25;;;13.34;77.04
68301;BME280;55146;47.468;18.806;2023-03-25T08:15:50;99316.75;;;13.89;74.41
68301;BME280;55146;47.468;18.806;2023-03-25T08:18:17;99307.25;;;14.03;73.42
68301;BME280;55146;47.468;18.806;2023-03-25T08:20:43;99317.13;;;14.27;72.91
68301;BME280;55146;47.468;18.806;2023-03-25T08:23:08;99320.44;;;14.68;73.06
68301;BME280;55146;47.468;18.806;2023-03-25T08:25:35;99326.91;;;15.20;69.99
68301;BME280;55146;47.468;18.806;2023-03-25T08:28:01;99321.38;;;15.37;66.92
68301;BME280;55146;47.468;18.806;2023-03-25T08:30:26;99329.87;;;15.50;68.32
68301;BME280;55146;47.468;18.806;2023-03-25T08:32:52;99317.81;;;15.97;67.75
68301;BME280;55146;47.468;18.806;2023-03-25T08:35:21;99311.97;;;16.37;65.38
68301;BME280;55146;47.468;18.806;2023-03-25T08:37:47;99304.88;;;16.56;62.71
68301;BME280;55146;47.468;18.806;2023-03-25T08:40:13;99302.63;;;15.86;64.67
68301;BME280;55146;47.468;18.806;2023-03-25T08:42:41;99302.00;;;15.81;65.38
68301;BME280;55146;47.468;18.806;2023-03-25T08:45:07;99308.34;;;15.38;66.52
68301;BME280;55146;47.468;18.806;2023-03-25T08:47:32;99312.25;;;15.11;66.43
68301;BME280;55146;47.468;18.806;2023-03-25T08:49:58;99310.00;;;15.48;65.74
68301;BME280;55146;47.468;18.806;2023-03-25T08:52:23;99310.59;;;16.13;64.59
68301;BME280;55146;47.468;18.806;2023-03-25T08:54:49;99310.19;;;16.41;62.83
68301;BME280;55146;47.468;18.806;2023-03-25T08:57:14;99307.34;;;16.03;63.75
68301;BME280;55146;47.468;18.806;2023-03-25T08:59:39;99314.56;;;16.50;65.58
68301;BME280;55146;47.468;18.806;2023-03-25T09:02:05;99304.03;;;17.03;62.24
68301;BME280;55146;47.468;18.806;2023-03-25T09:04:31;99295.22;;;17.42;58.60
68301;BME280;55146;47.468;18.806;2023-03-25T09:06:56;99301.06;;;17.49;59.45
68301;BME280;55146;47.468;18.806;2023-03-25T09:09:22;99304.88;;;17.45;59.34
68301;BME280;55146;47.468;18.806;2023-03-25T09:11:48;99310.97;;;17.79;59.57
68301;BME280;55146;47.468;18.806;2023-03-25T09:14:13;99308.56;;;17.90;55.85
68301;BME280;55146;47.468;18.806;2023-03-25T09:16:39;99311.16;;;17.95;57.26
68301;BME280;55146;47.468;18.806;2023-03-25T09:19:06;99312.06;;;18.20;55.45
68301;BME280;55146;47.468;18.806;2023-03-25T09:21:32;99317.94;;;18.06;55.62
68301;BME280;55146;47.468;18.806;2023-03-25T09:23:57;99325.56;;;18.09;56.78
68301;BME280;55146;47.468;18.806;2023-03-25T09:26:23;99320.50;;;17.28;57.24
68301;BME280;55146;47.468;18.806;2023-03-25T09:28:50;99320.84;;;17.06;57.95
68301;BME280;55146;47.468;18.806;2023-03-25T09:31:16;99319.09;;;17.43;58.35
68301;BME280;55146;47.468;18.806;2023-03-25T09:33:43;99320.78;;;17.65;56.98
68301;BME280;55146;47.468;18.806;2023-03-25T09:36:08;99314.91;;;17.58;56.58
68301;BME280;55146;47.468;18.806;2023-03-25T09:38:34;99323.91;;;18.29;55.50
68301;BME280;55146;47.468;18.806;2023-03-25T09:41:04;99324.81;;;18.66;52.21
68301;BME280;55146;47.468;18.806;2023-03-25T09:46:36;99329.00;;;18.39;52.92
68301;BME280;55146;47.468;18.806;2023-03-25T09:49:03;99322.59;;;18.59;53.52
68301;BME280;55146;47.468;18.806;2023-03-25T09:51:32;99325.03;;;19.10;52.98
68301;BME280;55146;47.468;18.806;2023-03-25T09:54:34;99322.81;;;19.15;50.08
68301;BME280;55146;47.468;18.806;2023-03-25T09:57:06;99317.22;;;18.54;52.95
68301;BME280;55146;47.468;18.806;2023-03-25T09:59:46;99325.50;;;18.18;52.52
68301;BME280;55146;47.468;18.806;2023-03-25T10:02:42;99330.78;;;18.44;52.76
68301;BME280;55146;47.468;18.806;2023-03-25T10:05:28;99332.91;;;17.81;54.07
68301;BME280;55146;47.468;18.806;2023-03-25T10:08:12;99335.66;;;16.89;55.07
68301;BME280;55146;47.468;18.806;2023-03-25T10:19:16;99332.50;;;18.81;50.16
68301;BME280;55146;47.468;18.806;2023-03-25T10:22:02;99326.47;;;18.46;53.34
68301;BME280;55146;47.468;18.806;2023-03-25T10:24:31;99329.31;;;18.71;49.77
68301;BME280;55146;47.468;18.806;2023-03-25T10:32:30;99321.56;;;18.19;49.43
68301;BME280;55146;47.468;18.806;2023-03-25T10:34:58;99325.03;;;17.83;48.71
68301;BME280;55146;47.468;18.806;2023-03-25T10:37:32;99321.69;;;17.90;50.44
68301;BME280;55146;47.468;18.806;2023-03-25T10:42:39;99319.00;;;17.81;49.23
68301;BME280;55146;47.468;18.806;2023-03-25T10:45:12;99325.38;;;17.40;49.59
68301;BME280;55146;47.468;18.806;2023-03-25T10:47:39;99327.72;;;17.29;50.71
68301;BME280;55146;47.468;18.806;2023-03-25T10:50:13;99339.13;;;17.36;50.03
68301;BME280;55146;47.468;18.806;2023-03-25T10:52:40;99337.28;;;17.40;51.10
68301;BME280;55146;47.468;18.806;2023-03-25T10:55:19;99331.56;;;16.87;50.30
68301;BME280;55146;47.468;18.806;2023-03-25T10:57:46;99342.56;;;16.75;52.21
68301;BME280;55146;47.468;18.806;2023-03-25T11:00:14;99349.53;;;16.60;53.06
68301;BME280;55146;47.468;18.806;2023-03-25T11:02:41;99345.03;;;16.76;54.60
68301;BME280;55146;47.468;18.806;2023-03-25T11:05:07;99345.13;;;16.88;52.33
68301;BME280;55146;47.468;18.806;2023-03-25T11:07:38;99336.78;;;16.88;51.61
68301;BME280;55146;47.468;18.806;2023-03-25T11:10:28;99344.00;;;17.10;49.66
68301;BME280;55146;47.468;18.806;2023-03-25T11:12:55;99344.63;;;16.86;48.22
68301;BME280;55146;47.468;18.806;2023-03-25T11:15:30;99340.50;;;16.63;50.82
68301;BME280;55146;47.468;18.806;2023-03-25T11:18:02;99353.16;;;16.35;51.07
68301;BME280;55146;47.468;18.806;2023-03-25T11:20:35;99353.31;;;16.38;49.88
68301;BME280;55146;47.468;18.806;2023-03-25T11:23:11;99359.06;;;16.16;50.21
68301;BME280;55146;47.468;18.806;2023-03-25T11:25:41;99364.81;;;16.02;53.16
68301;BME280;55146;47.468;18.806;2023-03-25T11:28:35;99364.28;;;16.17;51.44
68301;BME280;55146;47.468;18.806;2023-03-25T11:31:14;99374.09;;;16.06;51.72
68301;BME280;55146;47.468;18.806;2023-03-25T11:33:42;99370.03;;;15.95;50.92
68301;BME280;55146;47.468;18.806;2023-03-25T11:36:28;99369.69;;;15.88;51.90
68301;BME280;55146;47.468;18.806;2023-03-25T11:39:37;99362.38;;;15.84;51.97
68301;BME280;55146;47.468;18.806;2023-03-25T11:42:39;99362.69;;;15.65;52.59
68301;BME280;55146;47.468;18.806;2023-03-25T11:45:19;99374.88;;;15.38;52.94
68301;BME280;55146;47.468;18.806;2023-03-25T11:47:45;99369.00;;;15.39;53.58
68301;BME280;55146;47.468;18.806;2023-03-25T11:50:36;99372.59;;;15.40;55.03
68301;BME280;55146;47.468;18.806;2023-03-25T11:53:03;99364.31;;;15.49;53.71
68301;BME280;55146;47.468;18.806;2023-03-25T11:55:54;99364.28;;;15.40;53.99
68301;BME280;55146;47.468;18.806;2023-03-25T11:58:20;99359.34;;;15.20;54.30
68301;BME280;55146;47.468;18.806;2023-03-25T12:00:48;99372.53;;;15.06;52.72
68301;BME280;55146;47.468;18.806;2023-03-25T12:03:19;99369.41;;;15.07;54.38
68301;BME280;55146;47.468;18.806;2023-03-25T12:06:05;99362.44;;;15.18;54.53
68301;BME280;55146;47.468;18.806;2023-03-25T12:09:02;99351.06;;;15.28;53.02
68301;BME280;55146;47.468;18.806;2023-03-25T12:11:36;99339.97;;;15.37;53.50
68301;BME280;55146;47.468;18.806;2023-03-25T12:17:22;99342.41;;;15.38;51.58
68301;BME280;55146;47.468;18.806;2023-03-25T12:22:52;99329.06;;;15.49;52.47
68301;BME280;55146;47.468;18.806;2023-03-25T12:30:52;99310.94;;;15.26;52.94
68301;BME280;55146;47.468;18.806;2023-03-25T12:38:55;99299.72;;;15.48;51.89
68301;BME280;55146;47.468;18.806;2023-03-25T12:41:45;99294.19;;;15.65;52.46
68301;BME280;55146;47.468;18.806;2023-03-25T12:47:23;99292.56;;;15.73;49.74
68301;BME280;55146;47.468;18.806;2023-03-25T12:50:04;99292.25;;;15.66;49.05
68301;BME280;55146;47.468;18.806;2023-03-25T12:52:42;99289.78;;;15.64;49.13
68301;BME280;55146;47.468;18.806;2023-03-25T13:09:07;99296.44;;;15.20;49.42
68301;BME280;55146;47.468;18.806;2023-03-25T13:14:08;99289.12;;;15.24;50.18
68301;BME280;55146;47.468;18.806;2023-03-25T13:16:38;99287.31;;;15.37;47.47
68301;BME280;55146;47.468;18.806;2023-03-25T13:19:19;99299.22;;;15.20;48.12
68301;BME280;55146;47.468;18.806;2023-03-25T13:21:51;99298.41;;;15.37;48.50
68301;BME280;55146;47.468;18.806;2023-03-25T13:24:20;99296.44;;;15.37;48.33
68301;BME280;55146;47.468;18.806;2023-03-25T13:26:49;99293.03;;;15.32;47.38
68301;BME280;55146;47.468;18.806;2023-03-25T13:29:27;99289.44;;;15.40;48.50
68301;BME280;55146;47.468;18.806;2023-03-25T13:31:58;99289.97;;;15.59;46.72
68301;BME280;55146;47.468;18.806;2023-03-25T13:42:42;99277.84;;;15.81;47.91
68301;BME280;55146;47.468;18.806;2023-03-25T13:45:17;99272.84;;;15.66;47.25
68301;BME280;55146;47.468;18.806;2023-03-25T13:47:50;99285.84;;;15.74;47.18
68301;BME280;55146;47.468;18.806;2023-03-25T13:50:26;99286.06;;;15.60;49.59
68301;BME280;55146;47.468;18.806;2023-03-25T13:53:04;99276.59;;;15.53;48.04
68301;BME280;55146;47.468;18.806;2023-03-25T13:55:40;99276.06;;;15.51;48.42
68301;BME280;55146;47.468;18.806;2023-03-25T13:58:23;99285.72;;;15.36;48.51
68301;BME280;55146;47.468;18.806;2023-03-25T14:11:39;99297.88;;;14.92;51.44
68301;BME280;55146;47.468;18.806;2023-03-25T14:14:14;99308.94;;;15.01;50.44
68301;BME280;55146;47.468;18.806;2023-03-25T14:16:45;99294.31;;;15.09;48.08
68301;BME280;55146;47.468;18.806;2023-03-25T14:19:18;99290.91;;;15.20;48.78
68301;BME280;55146;47.468;18.806;2023-03-25T14:21:49;99288.44;;;15.02;48.60
68301;BME280;55146;47.468;18.806;2023-03-25T14:24:28;99286.81;;;15.09;47.51
68301;BME280;55146;47.468;18.806;2023-03-25T14:27:04;99285.50;;;15.07;49.86
68301;BME280;55146;47.468;18.806;2023-03-25T14:34:40;99289.44;;;15.14;49.02
68301;BME280;55146;47.468;18.806;2023-03-25T14:42:02;99278.53;;;15.18;48.93
68301;BME280;55146;47.468;18.806;2023-03-25T14:44:30;99277.03;;;15.03;46.87
68301;BME280;55146;47.468;18.806;2023-03-25T14:52:15;99282.47;;;14.60;43.27
68301;BME280;55146;47.468;18.806;2023-03-25T14:54:43;99270.06;;;14.49;43.99
68301;BME280;55146;47.468;18.806;2023-03-25T14:57:15;99275.75;;;14.44;43.58
68301;BME280;55146;47.468;18.806;2023-03-25T14:59:44;99271.50;;;14.38;45.45
68301;BME280;55146;47.468;18.806;2023-03-25T15:05:22;99287.34;;;14.24;46.37
68301;BME280;55146;47.468;18.806;2023-03-25T15:10:37;99286.84;;;14.22;46.97
68301;BME280;55146;47.468;18.806;2023-03-25T15:13:11;99289.50;;;14.35;46.65
68301;BME280;55146;47.468;18.806;2023-03-25T15:18:10;99288.84;;;14.30;46.85
68301;BME280;55146;47.468;18.806;2023-03-25T15:20:35;99287.75;;;14.39;46.68
68301;BME280;55146;47.468;18.806;2023-03-25T15:23:26;99293.66;;;14.46;48.14